Time;durP1;ratioP1;P1;durP2;ratioP2;P2;SDS_P1;SDS_P2;PMS_P1;PMS_P2;Temp;Humidity;BMP_temperature;BMP_pressure;BME280_temperature;BME280_humidity;BME280_pressure;Samples;Min_cycle;Max_cycle;Signal;HPM_P1;HPM_P2
2023/09/11 00:00:36;;;;;;;3.80;3.80;;;21.00;99.90;;;;;;5067396;28;20490;-65
2023/09/11 00:03:03;;;;;;;3.80;3.80;;;21.00;99.90;;;;;;5054451;28;20477;-65
2023/09/11 00:05:30;;;;;;;4.10;4.10;;;20.90;99.90;;;;;;5067090;28;20872;-65
2023/09/11 00:07:59;;;;;;;3.03;3.03;;;20.90;99.90;;;;;;5058817;28;20466;-66
2023/09/11 00:10:26;;;;;;;2.20;2.20;;;21.00;99.90;;;;;;5068242;28;20465;-66
2023/09/11 00:12:53;;;;;;;2.83;2.83;;;20.80;99.90;;;;;;5062196;28;20883;-65
2023/09/11 00:15:19;;;;;;;3.10;3.10;;;20.70;99.90;;;;;;5061511;28;20467;-65
2023/09/11 00:17:46;;;;;;;3.17;3.17;;;20.70;99.90;;;;;;5052597;28;21258;-65
2023/09/11 00:20:13;;;;;;;3.00;3.00;;;20.80;99.90;;;;;;5064929;28;20927;-65
2023/09/11 00:22:40;;;;;;;3.27;3.27;;;20.80;99.90;;;;;;5062581;28;20475;-66
2023/09/11 00:25:09;;;;;;;3.40;3.40;;;20.70;99.90;;;;;;5064368;28;20549;-67
2023/09/11 00:27:37;;;;;;;3.40;3.40;;;20.70;99.90;;;;;;5055965;28;20776;-66
2023/09/11 00:30:05;;;;;;;3.60;3.60;;;20.70;99.90;;;;;;5064384;28;20482;-66
2023/09/11 00:32:31;;;;;;;3.70;3.70;;;20.60;99.90;;;;;;5074724;28;20465;-66
2023/09/11 00:34:59;;;;;;;3.97;3.97;;;20.70;99.90;;;;;;5062629;28;20517;-67
2023/09/11 00:37:26;;;;;;;3.30;3.30;;;20.80;99.90;;;;;;5063094;28;20459;-66
2023/09/11 00:39:54;;;;;;;3.60;3.60;;;20.80;99.90;;;;;;5058492;28;20989;-67
2023/09/11 00:42:22;;;;;;;3.40;3.40;;;20.70;99.90;;;;;;5051929;28;20464;-67
2023/09/11 00:44:48;;;;;;;3.60;3.60;;;20.70;99.90;;;;;;5060637;28;20456;-66
2023/09/11 00:47:15;;;;;;;3.40;3.40;;;20.60;99.90;;;;;;5066469;28;20836;-66
2023/09/11 00:49:42;;;;;;;3.50;3.50;;;20.60;99.90;;;;;;5061626;28;20474;-66
2023/09/11 00:52:09;;;;;;;3.20;3.20;;;20.50;99.90;;;;;;5046480;28;20475;-66
2023/09/11 00:54:38;;;;;;;3.20;3.20;;;20.40;99.90;;;;;;5063746;28;20459;-68
2023/09/11 00:57:06;;;;;;;3.40;3.40;;;20.40;99.90;;;;;;5068565;28;20459;-66
2023/09/11 00:59:35;;;;;;;3.20;3.20;;;20.40;99.90;;;;;;5062817;28;20829;-66
2023/09/11 01:02:03;;;;;;;2.23;2.23;;;20.30;99.90;;;;;;5066025;28;20458;-67
2023/09/11 01:04:32;;;;;;;2.50;2.50;;;20.30;99.90;;;;;;5062352;28;20466;-67
2023/09/11 01:06:58;;;;;;;2.10;2.10;;;20.20;99.90;;;;;;5059264;28;20466;-67
2023/09/11 01:09:25;;;;;;;2.50;2.50;;;20.10;99.90;;;;;;5049367;28;20472;-66
2023/09/11 01:11:52;;;;;;;2.40;2.40;;;20.10;99.90;;;;;;5060428;28;21037;-66
2023/09/11 01:14:19;;;;;;;2.40;2.40;;;20.10;99.90;;;;;;5063313;28;20463;-67
2023/09/11 01:16:52;;;;;;;2.50;2.50;;;20.00;99.90;;;;;;5064325;28;20964;-67
2023/09/11 01:19:39;;;;;;;2.60;2.60;;;20.00;99.90;;;;;;5064745;28;20508;-66
2023/09/11 01:22:43;;;;;;;2.97;2.97;;;19.90;99.90;;;;;;5055891;28;20578;-66
2023/09/11 01:25:29;;;;;;;3.07;3.07;;;20.00;99.90;;;;;;5042357;28;20873;-67
2023/09/11 01:28:35;;;;;;;3.30;3.30;;;20.00;99.90;;;;;;5054788;28;20556;-67
2023/09/11 01:31:03;;;;;;;3.03;3.03;;;19.90;99.90;;;;;;5066999;28;20714;-66
2023/09/11 01:33:30;;;;;;;3.20;3.20;;;19.90;99.90;;;;;;5066203;28;20474;-67
2023/09/11 01:35:58;;;;;;;3.67;3.67;;;19.90;99.90;;;;;;5061237;28;20452;-67
2023/09/11 01:38:25;;;;;;;1.87;1.87;;;19.90;99.90;;;;;;5070484;28;21313;-66
2023/09/11 01:40:54;;;;;;;2.00;2.00;;;19.90;99.90;;;;;;5065978;28;20498;-67
2023/09/11 01:43:26;;;;;;;2.10;2.10;;;19.80;99.90;;;;;;5062376;28;20818;-67
2023/09/11 01:45:54;;;;;;;2.43;2.43;;;19.70;99.90;;;;;;5055437;28;20824;-66
2023/09/11 01:48:23;;;;;;;2.23;2.23;;;19.60;99.90;;;;;;5063075;28;20956;-67
2023/09/11 01:50:52;;;;;;;1.60;1.60;;;19.60;99.90;;;;;;5056576;28;20466;-67
2023/09/11 01:53:19;;;;;;;1.77;1.77;;;19.50;99.90;;;;;;5070893;28;20497;-66
2023/09/11 01:55:46;;;;;;;2.00;2.00;;;19.40;99.90;;;;;;5062909;28;20462;-67
2023/09/11 01:58:13;;;;;;;2.23;2.23;;;19.30;99.90;;;;;;5070940;28;20467;-66
2023/09/11 02:00:40;;;;;;;2.20;2.20;;;19.30;99.90;;;;;;5058936;28;20490;-67
2023/09/11 02:03:07;;;;;;;2.00;2.00;;;19.30;99.90;;;;;;5069476;28;20517;-67
2023/09/11 02:05:35;;;;;;;2.20;2.20;;;19.20;99.90;;;;;;5059746;28;20496;-66
2023/09/11 02:08:02;;;;;;;2.03;2.03;;;19.20;99.90;;;;;;5042106;28;20464;-66
2023/09/11 02:10:29;;;;;;;2.20;2.20;;;19.10;99.90;;;;;;5066936;28;20467;-66
2023/09/11 02:12:56;;;;;;;2.10;2.10;;;19.10;99.90;;;;;;5063033;28;20532;-68
2023/09/11 02:15:23;;;;;;;2.03;2.03;;;19.10;99.90;;;;;;5056406;28;20463;-66
2023/09/11 02:17:50;;;;;;;2.50;2.50;;;19.10;99.90;;;;;;5064054;28;20532;-66
2023/09/11 02:20:17;;;;;;;2.50;2.50;;;19.10;99.90;;;;;;5068375;28;20985;-66
2023/09/11 02:22:45;;;;;;;2.37;2.37;;;19.00;99.90;;;;;;5070702;28;20873;-67
2023/09/11 02:25:12;;;;;;;2.30;2.30;;;19.00;99.90;;;;;;5058349;28;20459;-66
2023/09/11 02:27:39;;;;;;;1.87;1.87;;;19.10;99.90;;;;;;5054405;28;20989;-68
2023/09/11 02:30:07;;;;;;;2.00;2.00;;;19.10;99.90;;;;;;5065666;28;20904;-66
2023/09/11 02:32:34;;;;;;;2.03;2.03;;;19.00;99.90;;;;;;5065821;28;20953;-67
2023/09/11 02:35:01;;;;;;;2.30;2.30;;;19.00;99.90;;;;;;5057724;28;20455;-66
2023/09/11 02:37:29;;;;;;;2.30;2.30;;;19.00;99.90;;;;;;5068908;28;20462;-66
2023/09/11 02:39:58;;;;;;;2.20;2.20;;;18.90;99.90;;;;;;5063446;28;20467;-66
2023/09/11 02:42:25;;;;;;;2.30;2.30;;;18.90;99.90;;;;;;5058530;28;20471;-66
2023/09/11 02:44:51;;;;;;;2.20;2.20;;;18.90;99.90;;;;;;5070022;28;21004;-66
2023/09/11 02:47:18;;;;;;;2.30;2.30;;;18.90;99.90;;;;;;5063842;28;20471;-66
2023/09/11 02:49:46;;;;;;;2.60;2.60;;;18.90;99.90;;;;;;5053160;28;20459;-67
2023/09/11 02:52:13;;;;;;;2.47;2.47;;;18.80;99.90;;;;;;5064416;28;20467;-66
2023/09/11 02:54:41;;;;;;;2.63;2.63;;;18.80;99.90;;;;;;5060638;28;20456;-66
2023/09/11 02:57:09;;;;;;;2.60;2.60;;;18.80;99.90;;;;;;5058819;28;20897;-67
2023/09/11 02:59:37;;;;;;;2.50;2.50;;;18.80;99.90;;;;;;5060595;28;20471;-66
2023/09/11 03:02:06;;;;;;;2.77;2.77;;;18.80;99.90;;;;;;5066860;28;20522;-66
2023/09/11 03:04:34;;;;;;;2.80;2.80;;;18.80;99.90;;;;;;5060343;28;20466;-66
2023/09/11 03:07:02;;;;;;;2.77;2.77;;;18.90;99.90;;;;;;5069855;28;20486;-66
2023/09/11 03:09:29;;;;;;;2.70;2.70;;;18.90;99.90;;;;;;5061268;28;20471;-66
2023/09/11 03:11:56;;;;;;;2.57;2.57;;;18.80;99.90;;;;;;5058428;28;20704;-66
2023/09/11 03:14:26;;;;;;;2.67;2.67;;;18.70;99.90;;;;;;5055878;28;20470;-67
2023/09/11 03:16:53;;;;;;;2.67;2.67;;;18.70;99.90;;;;;;5056114;28;20456;-66
2023/09/11 03:19:19;;;;;;;2.50;2.50;;;18.70;99.90;;;;;;5069742;28;20976;-66
2023/09/11 03:21:46;;;;;;;2.70;2.70;;;18.70;99.90;;;;;;5060257;28;20852;-66
2023/09/11 03:24:13;;;;;;;3.20;3.20;;;18.60;99.90;;;;;;5064410;28;20458;-66
2023/09/11 03:26:40;;;;;;;2.90;2.90;;;18.60;99.90;;;;;;5068826;28;20961;-66
2023/09/11 03:29:07;;;;;;;3.00;3.00;;;18.50;99.90;;;;;;5056814;28;20501;-66
2023/09/11 03:31:36;;;;;;;3.07;3.07;;;18.50;99.90;;;;;;5053602;28;20996;-66
2023/09/11 03:34:03;;;;;;;2.80;2.80;;;18.50;99.90;;;;;;5067166;28;20455;-66
2023/09/11 03:36:30;;;;;;;2.90;2.90;;;18.50;99.90;;;;;;5058788;28;21262;-66
2023/09/11 03:38:57;;;;;;;2.90;2.90;;;18.40;99.90;;;;;;5067480;28;21055;-67
2023/09/11 03:41:23;;;;;;;2.80;2.80;;;18.40;99.90;;;;;;5068973;28;20498;-66
2023/09/11 03:43:50;;;;;;;2.90;2.90;;;18.40;99.90;;;;;;5068948;28;20466;-66
2023/09/11 03:46:18;;;;;;;3.10;3.10;;;18.40;99.90;;;;;;5060175;28;20561;-67
2023/09/11 03:48:48;;;;;;;2.70;2.70;;;18.40;99.90;;;;;;5059414;28;20486;-66
2023/09/11 03:51:16;;;;;;;3.00;3.00;;;18.40;99.90;;;;;;5068041;28;20572;-67
2023/09/11 03:53:44;;;;;;;3.00;3.00;;;18.40;99.90;;;;;;5067886;28;20497;-66
2023/09/11 03:56:11;;;;;;;3.43;3.43;;;18.40;99.90;;;;;;5068649;28;20461;-67
2023/09/11 03:58:38;;;;;;;3.33;3.33;;;18.40;99.90;;;;;;5062397;28;20492;-67
2023/09/11 04:01:05;;;;;;;3.20;3.20;;;18.40;99.90;;;;;;5052432;28;20602;-66
2023/09/11 04:03:34;;;;;;;3.37;3.37;;;18.40;99.90;;;;;;5056740;28;20500;-66
2023/09/11 04:06:03;;;;;;;3.30;3.30;;;18.40;99.90;;;;;;5068413;28;20462;-67
2023/09/11 04:08:30;;;;;;;3.50;3.50;;;18.30;99.90;;;;;;5068796;28;20517;-66
2023/09/11 04:10:57;;;;;;;3.50;3.50;;;18.30;99.90;;;;;;5061564;28;20472;-68
2023/09/11 04:13:23;;;;;;;3.83;3.83;;;18.30;99.90;;;;;;5059749;28;20867;-68
2023/09/11 04:15:50;;;;;;;3.67;3.67;;;18.30;99.90;;;;;;5066232;28;20461;-66
2023/09/11 04:18:18;;;;;;;3.70;3.70;;;18.30;99.90;;;;;;5053388;28;20958;-67
2023/09/11 04:20:47;;;;;;;3.50;3.50;;;18.40;99.90;;;;;;5062941;28;20958;-65
2023/09/11 04:23:17;;;;;;;3.40;3.40;;;18.30;99.90;;;;;;5068618;28;20852;-67
2023/09/11 04:25:45;;;;;;;3.30;3.30;;;18.30;99.90;;;;;;5063380;28;20921;-66
2023/09/11 04:28:12;;;;;;;3.50;3.50;;;18.30;99.90;;;;;;5056623;28;20896;-66
2023/09/11 04:30:38;;;;;;;3.70;3.70;;;18.20;99.90;;;;;;5063617;28;20490;-66
2023/09/11 04:33:05;;;;;;;3.70;3.70;;;18.20;99.90;;;;;;5062861;28;20459;-66
2023/09/11 04:35:35;;;;;;;3.63;3.63;;;18.20;99.90;;;;;;5063125;28;20463;-66
2023/09/11 04:38:02;;;;;;;3.87;3.87;;;18.20;99.90;;;;;;5056613;28;21042;-66
2023/09/11 04:40:30;;;;;;;4.00;4.00;;;18.10;99.90;;;;;;5054323;28;20523;-66
2023/09/11 04:42:56;;;;;;;4.20;4.20;;;18.10;99.90;;;;;;5068335;28;20572;-66
2023/09/11 04:45:23;;;;;;;4.30;4.30;;;18.20;99.90;;;;;;5056174;28;20814;-67
2023/09/11 04:47:50;;;;;;;4.00;4.00;;;18.20;99.90;;;;;;5067790;28;20471;-65
2023/09/11 04:50:17;;;;;;;4.80;4.80;;;18.10;99.90;;;;;;5068362;28;20865;-66
2023/09/11 04:52:45;;;;;;;4.40;4.40;;;18.10;99.90;;;;;;5062888;28;20466;-67
2023/09/11 04:55:12;;;;;;;4.70;4.70;;;18.10;99.90;;;;;;5058265;28;20466;-66
2023/09/11 04:57:40;;;;;;;4.73;4.73;;;18.10;99.90;;;;;;5056827;28;20946;-65
2023/09/11 05:00:10;;;;;;;4.20;4.20;;;18.20;99.90;;;;;;5058191;28;20551;-67
2023/09/11 05:02:36;;;;;;;4.10;4.10;;;18.20;99.90;;;;;;5054639;28;20958;-67
2023/09/11 05:05:04;;;;;;;4.20;4.20;;;18.20;99.90;;;;;;5062828;28;20466;-65
2023/09/11 05:07:31;;;;;;;4.70;4.70;;;18.20;99.90;;;;;;5069796;28;20454;-66
2023/09/11 05:09:59;;;;;;;4.20;4.20;;;18.20;99.90;;;;;;5053613;28;20957;-66
2023/09/11 05:12:27;;;;;;;3.90;3.90;;;18.20;99.90;;;;;;5059083;28;20993;-66
2023/09/11 05:14:58;;;;;;;4.50;4.50;;;18.30;99.90;;;;;;5061974;28;21032;-66
2023/09/11 05:17:26;;;;;;;3.93;3.93;;;18.20;99.90;;;;;;5058298;28;20473;-66
2023/09/11 05:19:52;;;;;;;4.30;4.30;;;18.30;99.90;;;;;;5059451;28;20838;-67
2023/09/11 05:22:19;;;;;;;3.93;3.93;;;18.20;99.90;;;;;;5062671;28;20494;-66
2023/09/11 05:24:46;;;;;;;4.00;4.00;;;18.20;99.90;;;;;;5067542;28;20521;-66
2023/09/11 05:27:13;;;;;;;4.33;4.33;;;18.30;99.90;;;;;;5060438;28;20514;-65
2023/09/11 05:29:40;;;;;;;4.30;4.30;;;18.30;99.90;;;;;;5063294;28;20578;-67
2023/09/11 05:32:08;;;;;;;4.50;4.50;;;18.30;99.90;;;;;;5058556;28;20471;-66
2023/09/11 05:34:36;;;;;;;4.03;4.03;;;18.40;99.90;;;;;;5064472;28;20461;-67
2023/09/11 05:37:03;;;;;;;4.30;4.30;;;18.50;99.90;;;;;;5053574;28;20562;-66
2023/09/11 05:39:31;;;;;;;4.40;4.40;;;18.50;99.90;;;;;;5061828;28;20462;-66
2023/09/11 05:41:58;;;;;;;3.97;3.97;;;18.50;99.90;;;;;;5054164;28;20494;-67
2023/09/11 05:44:25;;;;;;;4.17;4.17;;;18.60;99.90;;;;;;5059175;28;21033;-65
2023/09/11 05:46:52;;;;;;;4.20;4.20;;;18.60;99.90;;;;;;5055109;28;20459;-67
2023/09/11 05:49:21;;;;;;;4.60;4.60;;;18.70;99.90;;;;;;5056025;28;20554;-65
2023/09/11 05:51:49;;;;;;;4.80;4.80;;;18.80;99.90;;;;;;5047717;28;20544;-66
2023/09/11 05:54:16;;;;;;;4.80;4.80;;;18.90;99.90;;;;;;5054071;28;20513;-66
2023/09/11 05:56:43;;;;;;;4.90;4.90;;;19.00;99.90;;;;;;5063018;28;20965;-66
2023/09/11 05:59:10;;;;;;;4.70;4.70;;;19.00;99.90;;;;;;5060715;28;20556;-66
2023/09/11 06:01:39;;;;;;;5.30;5.20;;;19.10;99.90;;;;;;5061652;28;20508;-67
2023/09/11 06:04:06;;;;;;;5.70;5.60;;;19.30;99.90;;;;;;5052848;28;20459;-67
2023/09/11 06:06:36;;;;;;;5.00;5.00;;;19.40;99.90;;;;;;5051155;28;20478;-66
2023/09/11 06:09:17;;;;;;;5.70;5.60;;;19.40;99.90;;;;;;5058385;28;20467;-67
2023/09/11 06:11:45;;;;;;;5.93;5.83;;;19.50;99.90;;;;;;5060083;28;20579;-67
2023/09/11 06:14:11;;;;;;;6.13;6.03;;;19.60;99.90;;;;;;5052125;28;20467;-67
2023/09/11 06:16:38;;;;;;;6.30;6.20;;;19.60;99.90;;;;;;5043115;28;20467;-67
2023/09/11 06:19:05;;;;;;;6.13;6.03;;;19.70;99.90;;;;;;5051572;28;20462;-66
2023/09/11 06:21:33;;;;;;;6.10;6.00;;;19.80;99.90;;;;;;5054698;28;20486;-66
2023/09/11 06:24:00;;;;;;;6.20;6.10;;;19.80;99.90;;;;;;5054280;28;20535;-66
2023/09/11 06:26:28;;;;;;;6.30;6.20;;;19.90;99.90;;;;;;5057570;28;20550;-65
2023/09/11 06:28:55;;;;;;;6.60;6.50;;;20.00;99.90;;;;;;5061603;28;20843;-68
2023/09/11 06:31:22;;;;;;;6.90;6.80;;;20.10;99.90;;;;;;5054023;28;20470;-67
2023/09/11 06:33:49;;;;;;;7.30;7.20;;;20.20;99.90;;;;;;5048911;28;20467;-68
2023/09/11 06:36:16;;;;;;;8.20;8.10;;;20.20;99.90;;;;;;5061549;28;20510;-67
2023/09/11 06:38:44;;;;;;;8.30;8.20;;;20.40;99.90;;;;;;5059814;28;20451;-67
2023/09/11 06:41:11;;;;;;;8.87;8.77;;;20.50;99.90;;;;;;5055099;28;20674;-68
2023/09/11 06:43:38;;;;;;;9.43;9.23;;;20.70;99.90;;;;;;5061403;28;20487;-68
2023/09/11 06:46:05;;;;;;;9.47;9.27;;;20.80;99.90;;;;;;5046643;28;20474;-68
2023/09/11 06:48:33;;;;;;;9.20;9.00;;;20.90;99.90;;;;;;5059215;28;20462;-67
2023/09/11 06:51:00;;;;;;;9.97;9.77;;;21.00;99.90;;;;;;5060965;28;20927;-68
2023/09/11 06:53:26;;;;;;;10.80;10.60;;;21.10;99.90;;;;;;5056064;28;20470;-68
2023/09/11 06:55:55;;;;;;;10.50;10.30;;;21.20;99.90;;;;;;5061767;28;20463;-68
2023/09/11 06:58:22;;;;;;;11.27;10.97;;;21.40;99.90;;;;;;5056370;28;20465;-67
2023/09/11 07:00:48;;;;;;;11.20;10.90;;;21.60;99.90;;;;;;5071455;28;20453;-67
2023/09/11 07:03:16;;;;;;;10.87;10.67;;;21.70;99.90;;;;;;5064858;28;20923;-68
2023/09/11 07:05:43;;;;;;;11.27;10.97;;;21.80;99.90;;;;;;5052553;28;20554;-68
2023/09/11 07:08:10;;;;;;;11.70;11.40;;;21.90;99.90;;;;;;5062004;28;20482;-68
2023/09/11 07:10:37;;;;;;;11.87;11.57;;;21.90;99.90;;;;;;5053755;28;20471;-68
2023/09/11 07:13:05;;;;;;;12.10;11.80;;;22.10;99.90;;;;;;5048523;28;20467;-69
2023/09/11 07:15:32;;;;;;;12.80;12.40;;;22.20;99.90;;;;;;5054215;28;21012;-68
2023/09/11 07:17:58;;;;;;;12.70;12.30;;;22.30;99.90;;;;;;5062083;28;21892;-68
2023/09/11 07:20:25;;;;;;;12.40;12.10;;;22.40;99.90;;;;;;5060056;28;20462;-68
2023/09/11 07:22:52;;;;;;;12.80;12.40;;;22.50;99.90;;;;;;5057963;28;20483;-68
2023/09/11 07:25:22;;;;;;;12.90;12.50;;;22.60;99.90;;;;;;5054654;28;20767;-69
2023/09/11 07:27:49;;;;;;;12.83;12.43;;;22.70;99.90;;;;;;5065442;28;20475;-68
2023/09/11 07:30:19;;;;;;;12.80;12.40;;;22.70;99.90;;;;;;5082497;28;20498;-69
2023/09/11 07:32:46;;;;;;;12.90;12.50;;;23.00;99.90;;;;;;5077414;28;20459;-68
2023/09/11 07:35:13;;;;;;;12.47;12.17;;;23.10;99.90;;;;;;5084146;28;20561;-68
2023/09/11 07:37:40;;;;;;;13.20;12.80;;;23.10;99.90;;;;;;5075073;28;20458;-69
2023/09/11 07:40:09;;;;;;;13.17;12.77;;;23.30;99.90;;;;;;5074632;28;20801;-67
2023/09/11 07:42:37;;;;;;;13.30;12.90;;;23.30;99.90;;;;;;5075201;28;20517;-69
2023/09/11 07:45:06;;;;;;;13.10;12.70;;;23.50;99.90;;;;;;5077519;28;20957;-68
2023/09/11 07:47:34;;;;;;;13.17;12.77;;;23.60;99.90;;;;;;5084691;28;20820;-68
2023/09/11 07:50:01;;;;;;;12.80;12.40;;;23.80;99.90;;;;;;5070641;28;20841;-68
2023/09/11 07:52:28;;;;;;;12.63;12.30;;;23.80;99.90;;;;;;5078403;28;20462;-68
2023/09/11 07:54:55;;;;;;;13.10;12.70;;;24.00;99.90;;;;;;5072232;28;20553;-68
2023/09/11 07:57:22;;;;;;;12.83;12.43;;;24.00;99.90;;;;;;5084639;28;20458;-68
2023/09/11 07:59:49;;;;;;;12.83;12.43;;;24.10;99.90;;;;;;5076769;28;20485;-68
2023/09/11 08:02:16;;;;;;;13.10;12.70;;;24.20;99.90;;;;;;5079956;28;20478;-68
2023/09/11 08:04:44;;;;;;;13.10;12.70;;;24.20;99.90;;;;;;5075581;28;20561;-69
2023/09/11 08:07:11;;;;;;;12.90;12.50;;;24.20;99.90;;;;;;5082377;28;20975;-69
2023/09/11 08:09:38;;;;;;;13.20;12.80;;;24.50;99.90;;;;;;5085881;28;20496;-68
2023/09/11 08:12:06;;;;;;;12.93;12.53;;;24.60;99.90;;;;;;5073598;28;21015;-69
2023/09/11 08:14:32;;;;;;;13.27;12.87;;;24.70;99.90;;;;;;5075862;28;20470;-68
2023/09/11 08:16:59;;;;;;;13.50;13.10;;;24.80;99.90;;;;;;5077099;28;20451;-68
2023/09/11 08:19:26;;;;;;;13.47;13.07;;;25.00;99.90;;;;;;5075542;28;20481;-68
2023/09/11 08:21:54;;;;;;;13.00;12.60;;;25.10;99.90;;;;;;5073710;28;20458;-69
2023/09/11 08:24:21;;;;;;;13.40;13.00;;;25.10;99.90;;;;;;5072209;28;20852;-68
2023/09/11 08:26:47;;;;;;;13.63;13.23;;;25.10;99.90;;;;;;5082461;28;20861;-69
2023/09/11 08:29:15;;;;;;;12.80;12.40;;;25.30;99.90;;;;;;5070497;28;20509;-68
2023/09/11 08:31:42;;;;;;;13.00;12.60;;;25.50;99.90;;;;;;5085497;28;20461;-68
2023/09/11 08:34:09;;;;;;;12.60;12.30;;;25.70;99.90;;;;;;5080884;28;21200;-68
2023/09/11 08:36:36;;;;;;;12.80;12.40;;;25.80;99.90;;;;;;5077819;28;20939;-68
2023/09/11 08:39:05;;;;;;;12.47;12.17;;;25.90;99.90;;;;;;5070425;28;20835;-68
2023/09/11 08:41:34;;;;;;;13.00;12.60;;;26.10;99.90;;;;;;5081472;28;20454;-69
2023/09/11 08:44:00;;;;;;;12.90;12.50;;;26.20;99.90;;;;;;5083121;28;20548;-68
2023/09/11 08:46:31;;;;;;;13.30;12.90;;;26.30;99.90;;;;;;5080029;28;20466;-68
2023/09/11 08:49:00;;;;;;;12.60;12.30;;;26.30;99.90;;;;;;5075214;28;20466;-69
2023/09/11 08:51:35;;;;;;;13.40;13.00;;;26.50;99.90;;;;;;5079804;28;20553;-68
2023/09/11 08:54:04;;;;;;;13.30;12.90;;;26.60;99.90;;;;;;5085568;28;20458;-68
2023/09/11 08:56:34;;;;;;;13.40;13.00;;;26.80;99.90;;;;;;5079830;28;20854;-68
2023/09/11 08:59:03;;;;;;;13.73;13.33;;;26.80;99.90;;;;;;5084043;28;20871;-68
2023/09/11 09:01:31;;;;;;;13.43;13.03;;;26.90;99.90;;;;;;5079830;28;20453;-68
2023/09/11 09:04:00;;;;;;;13.77;13.37;;;27.00;99.90;;;;;;5070851;28;21070;-68
2023/09/11 09:06:28;;;;;;;13.90;13.50;;;27.10;99.90;;;;;;5085080;28;20956;-66
2023/09/11 09:08:55;;;;;;;13.80;13.40;;;27.10;99.90;;;;;;5083646;28;20541;-68
2023/09/11 09:11:22;;;;;;;13.67;13.27;;;27.10;99.90;;;;;;5077452;28;20465;-68
2023/09/11 09:13:50;;;;;;;14.10;13.70;;;27.20;99.90;;;;;;5076955;28;20462;-68
2023/09/11 09:16:19;;;;;;;14.10;13.70;;;27.30;99.90;;;;;;5076599;28;20469;-69
2023/09/11 09:18:49;;;;;;;14.10;13.70;;;27.60;99.90;;;;;;5080099;28;20463;-68
2023/09/11 09:21:16;;;;;;;13.57;13.17;;;28.20;99.90;;;;;;5081533;28;20545;-69
2023/09/11 09:23:43;;;;;;;13.83;13.43;;;29.00;99.90;;;;;;5077952;28;20492;-68
2023/09/11 09:26:11;;;;;;;14.00;13.60;;;29.80;99.90;;;;;;5086709;28;20511;-68
2023/09/11 09:28:45;;;;;;;14.50;14.00;;;30.40;99.90;;;;;;5076034;28;20491;-69
2023/09/11 09:31:23;;;;;;;14.60;14.10;;;30.40;99.90;;;;;;5085207;28;20904;-69
2023/09/11 09:33:53;;;;;;;14.30;13.83;;;30.60;99.90;;;;;;5076026;28;20467;-69
2023/09/11 09:36:21;;;;;;;14.63;14.13;;;30.90;99.90;;;;;;5079431;28;20545;-66
2023/09/11 09:38:48;;;;;;;15.30;14.80;;;31.20;99.90;;;;;;5079665;28;20468;-66
2023/09/11 09:41:16;;;;;;;15.00;14.50;;;31.60;99.90;;;;;;5084418;28;20963;-66
2023/09/11 09:43:52;;;;;;;15.23;14.73;;;32.00;99.90;;;;;;5077663;28;20493;-69
2023/09/11 09:46:22;;;;;;;14.97;14.47;;;32.20;99.90;;;;;;5084556;28;20482;-69
2023/09/11 09:48:49;;;;;;;14.67;14.17;;;32.10;99.90;;;;;;5069418;28;20965;-66
2023/09/11 09:51:16;;;;;;;15.07;14.57;;;32.20;99.90;;;;;;5077019;28;20539;-66
2023/09/11 09:53:46;;;;;;;15.20;14.70;;;32.00;99.90;;;;;;5081016;28;20462;-66
2023/09/11 09:56:14;;;;;;;15.00;14.50;;;32.00;99.90;;;;;;5087824;28;20453;-68
2023/09/11 09:58:42;;;;;;;15.13;14.63;;;31.70;99.90;;;;;;5083263;28;20463;-68
2023/09/11 10:01:11;;;;;;;14.70;14.20;;;32.60;99.90;;;;;;5084774;28;20458;-67
2023/09/11 10:03:41;;;;;;;14.90;14.40;;;32.80;99.90;;;;;;5086193;28;20817;-67
2023/09/11 10:06:09;;;;;;;14.77;14.27;;;32.90;99.90;;;;;;5074639;28;20454;-67
2023/09/11 10:08:36;;;;;;;14.83;14.33;;;33.10;99.90;;;;;;5088814;28;20941;-67
2023/09/11 10:11:05;;;;;;;15.13;14.63;;;32.90;99.90;;;;;;5089596;28;20457;-66
2023/09/11 10:13:33;;;;;;;15.20;14.70;;;33.10;99.90;;;;;;5077420;28;20463;-67
2023/09/11 10:16:00;;;;;;;15.30;14.80;;;32.70;99.90;;;;;;5081275;28;20511;-67
2023/09/11 10:18:29;;;;;;;15.03;14.53;;;32.30;99.90;;;;;;5083824;28;20512;-67
2023/09/11 10:20:59;;;;;;;15.37;14.87;;;32.70;99.90;;;;;;5079972;28;20475;-67
2023/09/11 10:23:26;;;;;;;15.70;15.20;;;32.60;99.90;;;;;;5070887;28;20976;-67
2023/09/11 10:26:02;;;;;;;15.30;14.80;;;32.90;99.90;;;;;;5075918;28;20462;-67
2023/09/11 10:28:35;;;;;;;15.03;14.53;;;33.10;99.90;;;;;;5083071;28;20494;-67
2023/09/11 10:31:10;;;;;;;15.87;15.37;;;33.00;99.90;;;;;;5082847;28;20468;-68
2023/09/11 10:33:39;;;;;;;15.10;14.60;;;32.70;99.90;;;;;;5086517;28;21026;-68
2023/09/11 10:36:13;;;;;;;15.23;14.73;;;32.90;99.90;;;;;;5078611;28;20465;-68
2023/09/11 10:38:44;;;;;;;15.60;15.10;;;33.00;99.90;;;;;;5084653;28;20458;-68
2023/09/11 10:41:12;;;;;;;15.40;14.90;;;33.20;99.90;;;;;;5079033;28;20485;-68
2023/09/11 10:43:38;;;;;;;15.40;14.90;;;33.40;99.90;;;;;;5083425;28;20484;-67
2023/09/11 10:46:31;;;;;;;15.90;15.40;;;33.80;99.90;;;;;;5088080;28;20864;-68
2023/09/11 10:49:00;;;;;;;16.20;15.60;;;33.40;99.90;;;;;;5077535;28;20947;-68
2023/09/11 10:51:29;;;;;;;15.30;14.80;;;33.80;99.90;;;;;;5084515;28;20466;-68
2023/09/11 10:53:56;;;;;;;15.63;15.13;;;34.00;99.90;;;;;;5071329;28;20470;-68
2023/09/11 10:56:23;;;;;;;15.57;15.07;;;34.30;99.90;;;;;;5078004;28;20499;-68
2023/09/11 10:58:52;;;;;;;15.43;14.93;;;34.50;99.90;;;;;;5087900;28;20450;-68
2023/09/11 11:01:19;;;;;;;15.40;14.90;;;35.10;99.90;;;;;;5077032;28;20574;-68
2023/09/11 11:03:46;;;;;;;15.50;15.00;;;35.70;99.90;;;;;;5085765;28;20851;-68
2023/09/11 11:06:18;;;;;;;15.77;15.27;;;35.70;99.90;;;;;;5073860;28;20925;-69
2023/09/11 11:08:47;;;;;;;15.90;15.40;;;35.30;99.90;;;;;;5088194;28;20541;-68
2023/09/11 11:11:25;;;;;;;15.60;15.10;;;34.70;99.90;;;;;;5081481;28;20956;-68
2023/09/11 11:14:12;;;;;;;15.27;14.77;;;34.90;99.90;;;;;;5081845;28;20465;-69
2023/09/11 11:16:40;;;;;;;15.43;14.93;;;35.40;99.90;;;;;;5085964;28;20970;-69
2023/09/11 11:19:07;;;;;;;14.97;14.47;;;35.30;99.90;;;;;;5077731;28;20458;-69
2023/09/11 11:21:41;;;;;;;14.60;14.20;;;36.00;99.90;;;;;;5077788;28;20493;-68
2023/09/11 11:24:11;;;;;;;15.30;14.80;;;36.40;99.90;;;;;;5070113;28;20521;-69
2023/09/11 11:26:40;;;;;;;15.60;15.10;;;35.80;99.90;;;;;;5078597;28;20459;-69
2023/09/11 11:29:08;;;;;;;14.80;14.30;;;35.80;99.90;;;;;;5081792;28;20585;-68
2023/09/11 11:31:38;;;;;;;14.63;14.20;;;35.90;99.90;;;;;;5077858;28;20690;-68
2023/09/11 11:34:06;;;;;;;14.90;14.40;;;35.80;99.90;;;;;;5076565;28;20467;-69
2023/09/11 11:36:33;;;;;;;15.00;14.50;;;35.70;99.90;;;;;;5070502;28;20960;-69
2023/09/11 11:39:00;;;;;;;14.33;13.93;;;35.90;99.90;;;;;;5079797;28;20459;-67
2023/09/11 11:41:30;;;;;;;14.60;14.20;;;36.20;99.90;;;;;;5077734;28;20856;-69
2023/09/11 11:43:58;;;;;;;14.47;14.07;;;36.40;99.90;;;;;;5077916;28;20490;-68
2023/09/11 11:46:30;;;;;;;14.60;14.20;;;36.20;99.90;;;;;;5077951;28;20454;-69
2023/09/11 11:48:57;;;;;;;15.30;14.80;;;35.40;99.90;;;;;;5082940;28;20843;-69
2023/09/11 11:51:32;;;;;;;15.00;14.50;;;35.80;99.90;;;;;;5077519;28;20466;-69
2023/09/11 11:53:59;;;;;;;14.27;13.87;;;35.90;99.90;;;;;;5073095;28;20462;-69
2023/09/11 11:56:27;;;;;;;14.53;14.13;;;36.70;99.90;;;;;;5079797;28;20893;-69
2023/09/11 11:58:56;;;;;;;15.10;14.60;;;36.10;99.90;;;;;;5081422;28;20466;-69
2023/09/11 12:01:23;;;;;;;14.30;13.90;;;36.40;99.90;;;;;;5078849;28;20601;-69
2023/09/11 12:03:51;;;;;;;14.40;14.00;;;36.30;99.90;;;;;;5078217;28;20494;-69
2023/09/11 12:06:20;;;;;;;14.37;13.97;;;36.50;99.90;;;;;;5076623;28;20466;-69
2023/09/11 12:08:48;;;;;;;14.03;13.63;;;36.60;99.90;;;;;;5068886;28;20473;-69
2023/09/11 12:11:15;;;;;;;14.57;14.17;;;36.70;99.90;;;;;;5069283;28;20459;-69
2023/09/11 12:13:43;;;;;;;14.10;13.70;;;36.20;99.90;;;;;;5075790;28;20470;-69
2023/09/11 12:16:11;;;;;;;14.60;14.20;;;35.50;99.90;;;;;;5079469;28;20458;-69
2023/09/11 12:18:42;;;;;;;14.47;14.07;;;35.20;99.90;;;;;;5081643;28;20945;-69
2023/09/11 12:21:10;;;;;;;14.43;14.03;;;35.20;99.90;;;;;;5078765;28;20459;-66
2023/09/11 12:23:36;;;;;;;14.03;13.63;;;35.30;99.90;;;;;;5077411;28;20502;-66
2023/09/11 12:26:05;;;;;;;14.07;13.67;;;35.40;99.90;;;;;;5069844;28;20472;-67
2023/09/11 12:28:32;;;;;;;14.20;13.80;;;35.90;99.90;;;;;;5079025;28;20490;-69
2023/09/11 12:31:01;;;;;;;14.50;14.10;;;35.70;99.90;;;;;;5078413;28;21813;-70
2023/09/11 12:33:32;;;;;;;14.30;13.90;;;35.60;99.90;;;;;;5078223;28;20450;-69
2023/09/11 12:36:00;;;;;;;15.10;14.60;;;35.20;99.90;;;;;;5072655;28;20458;-69
2023/09/11 12:38:27;;;;;;;13.90;13.50;;;35.20;99.90;;;;;;5075948;28;20484;-70
2023/09/11 12:40:54;;;;;;;14.23;13.83;;;35.40;99.90;;;;;;5075717;28;20454;-68
2023/09/11 12:43:22;;;;;;;13.93;13.53;;;35.90;99.90;;;;;;5073952;28;20458;-68